sensor_id;sensor_type;location;lat;lon;timestamp;temperature;humidity
61841;DHT22;47773;53.174;6.614;2023-05-10T00:02:25;13.90;99.90
61841;DHT22;47773;53.174;6.614;2023-05-10T00:04:52;13.80;99.90
61841;DHT22;47773;53.174;6.614;2023-05-10T00:07:17;13.80;99.90
61841;DHT22;47773;53.174;6.614;2023-05-10T00:09:43;13.80;99.90
61841;DHT22;47773;53.174;6.614;2023-05-10T00:12:09;13.80;99.90
61841;DHT22;47773;53.174;6.614;2023-05-10T00:14:35;13.80;99.90
61841;DHT22;47773;53.174;6.614;2023-05-10T00:17:01;13.80;99.90
61841;DHT22;47773;53.174;6.614;2023-05-10T00:19:26;13.70;99.90
61841;DHT22;47773;53.174;6.614;2023-05-10T00:21:52;13.70;99.90
61841;DHT22;47773;53.174;6.614;2023-05-10T00:24:18;13.70;99.90
61841;DHT22;47773;53.174;6.614;2023-05-10T00:26:44;13.70;99.90
61841;DHT22;47773;53.174;6.614;2023-05-10T00:29:10;13.70;99.90
61841;DHT22;47773;53.174;6.614;2023-05-10T00:31:35;13.70;99.90
61841;DHT22;47773;53.174;6.614;2023-05-10T00:34:01;13.70;99.90
61841;DHT22;47773;53.174;6.614;2023-05-10T00:36:26;13.70;99.90
61841;DHT22;47773;53.174;6.614;2023-05-10T00:38:53;13.70;99.90
61841;DHT22;47773;53.174;6.614;2023-05-10T00:41:18;13.70;99.90
61841;DHT22;47773;53.174;6.614;2023-05-10T00:43:44;13.70;99.90
61841;DHT22;47773;53.174;6.614;2023-05-10T00:46:10;13.70;99.90
61841;DHT22;47773;53.174;6.614;2023-05-10T00:48:36;13.70;99.90
61841;DHT22;47773;53.174;6.614;2023-05-10T00:51:02;13.70;99.90
61841;DHT22;47773;53.174;6.614;2023-05-10T00:53:29;13.70;99.90
61841;DHT22;47773;53.174;6.614;2023-05-10T00:55:56;13.70;99.90
61841;DHT22;47773;53.174;6.614;2023-05-10T00:58:22;13.70;99.90
61841;DHT22;47773;53.174;6.614;2023-05-10T01:00:49;13.70;99.90
61841;DHT22;47773;53.174;6.614;2023-05-10T01:03:16;13.70;99.90
61841;DHT22;47773;53.174;6.614;2023-05-10T01:05:42;13.70;99.90
61841;DHT22;47773;53.174;6.614;2023-05-10T01:08:08;13.70;99.90
61841;DHT22;47773;53.174;6.614;2023-05-10T01:10:34;13.60;99.90
61841;DHT22;47773;53.174;6.614;2023-05-10T01:13:00;13.60;99.90
61841;DHT22;47773;53.174;6.614;2023-05-10T01:15:26;13.60;99.90
61841;DHT22;47773;53.174;6.614;2023-05-10T01:17:53;13.60;99.90
61841;DHT22;47773;53.174;6.614;2023-05-10T01:20:19;13.60;99.90
61841;DHT22;47773;53.174;6.614;2023-05-10T01:23:21;13.60;99.90
61841;DHT22;47773;53.174;6.614;2023-05-10T01:26:17;13.60;99.90
61841;DHT22;47773;53.174;6.614;2023-05-10T01:37:22;13.50;99.90
61841;DHT22;47773;53.174;6.614;2023-05-10T01:39:58;13.50;99.90
61841;DHT22;47773;53.174;6.614;2023-05-10T01:42:28;13.40;99.90
61841;DHT22;47773;53.174;6.614;2023-05-10T01:47:46;13.40;99.90
61841;DHT22;47773;53.174;6.614;2023-05-10T01:50:18;13.50;99.90
61841;DHT22;47773;53.174;6.614;2023-05-10T01:52:49;13.40;99.90
61841;DHT22;47773;53.174;6.614;2023-05-10T01:55:18;13.40;99.90
61841;DHT22;47773;53.174;6.614;2023-05-10T01:57:48;13.50;99.90
61841;DHT22;47773;53.174;6.614;2023-05-10T02:00:16;13.40;99.90
61841;DHT22;47773;53.174;6.614;2023-05-10T02:02:48;13.40;99.90
61841;DHT22;47773;53.174;6.614;2023-05-10T02:05:16;13.40;99.90
61841;DHT22;47773;53.174;6.614;2023-05-10T02:07:43;13.40;99.90
61841;DHT22;47773;53.174;6.614;2023-05-10T02:10:10;13.40;99.90
61841;DHT22;47773;53.174;6.614;2023-05-10T02:12:41;13.40;99.90
61841;DHT22;47773;53.174;6.614;2023-05-10T02:15:08;13.30;99.90
61841;DHT22;47773;53.174;6.614;2023-05-10T02:17:35;13.30;99.90
61841;DHT22;47773;53.174;6.614;2023-05-10T02:20:03;13.30;99.90
61841;DHT22;47773;53.174;6.614;2023-05-10T02:22:30;13.30;99.90
61841;DHT22;47773;53.174;6.614;2023-05-10T02:24:58;13.30;99.90
61841;DHT22;47773;53.174;6.614;2023-05-10T02:27:25;13.30;99.90
61841;DHT22;47773;53.174;6.614;2023-05-10T02:29:53;13.30;99.90
61841;DHT22;47773;53.174;6.614;2023-05-10T02:32:21;13.40;99.90
61841;DHT22;47773;53.174;6.614;2023-05-10T02:34:49;13.30;99.90
61841;DHT22;47773;53.174;6.614;2023-05-10T02:37:19;13.30;99.90
61841;DHT22;47773;53.174;6.614;2023-05-10T02:39:47;13.30;99.90
61841;DHT22;47773;53.174;6.614;2023-05-10T02:42:17;13.30;99.90
61841;DHT22;47773;53.174;6.614;2023-05-10T02:44:48;13.30;99.90
61841;DHT22;47773;53.174;6.614;2023-05-10T02:47:14;13.30;99.90
61841;DHT22;47773;53.174;6.614;2023-05-10T02:49:40;13.30;99.90
61841;DHT22;47773;53.174;6.614;2023-05-10T02:52:06;13.20;99.90
61841;DHT22;47773;53.174;6.614;2023-05-10T02:54:43;13.30;99.90
61841;DHT22;47773;53.174;6.614;2023-05-10T02:57:14;13.30;99.90
61841;DHT22;47773;53.174;6.614;2023-05-10T02:59:41;13.30;99.90
61841;DHT22;47773;53.174;6.614;2023-05-10T03:02:09;13.30;99.90
61841;DHT22;47773;53.174;6.614;2023-05-10T03:04:35;13.30;99.90
61841;DHT22;47773;53.174;6.614;2023-05-10T03:07:01;13.30;99.90
61841;DHT22;47773;53.174;6.614;2023-05-10T03:09:27;13.30;99.90
61841;DHT22;47773;53.174;6.614;2023-05-10T03:15:04;13.20;99.90
61841;DHT22;47773;53.174;6.614;2023-05-10T03:17:47;13.30;99.90
61841;DHT22;47773;53.174;6.614;2023-05-10T03:20:25;13.20;99.90
61841;DHT22;47773;53.174;6.614;2023-05-10T03:23:50;13.20;99.90
61841;DHT22;47773;53.174;6.614;2023-05-10T03:25:50;13.20;99.90
61841;DHT22;47773;53.174;6.614;2023-05-10T03:28:18;13.20;99.90
61841;DHT22;47773;53.174;6.614;2023-05-10T03:30:44;13.20;99.90
61841;DHT22;47773;53.174;6.614;2023-05-10T03:33:10;13.20;99.90
61841;DHT22;47773;53.174;6.614;2023-05-10T03:35:36;13.20;99.90
61841;DHT22;47773;53.174;6.614;2023-05-10T03:38:02;13.20;99.90
61841;DHT22;47773;53.174;6.614;2023-05-10T03:40:28;13.20;99.90
61841;DHT22;47773;53.174;6.614;2023-05-10T03:42:56;13.20;99.90
61841;DHT22;47773;53.174;6.614;2023-05-10T03:45:22;13.20;99.90
61841;DHT22;47773;53.174;6.614;2023-05-10T03:47:48;13.20;99.90
61841;DHT22;47773;53.174;6.614;2023-05-10T03:50:14;13.20;99.90
61841;DHT22;47773;53.174;6.614;2023-05-10T03:52:40;13.20;99.90
61841;DHT22;47773;53.174;6.614;2023-05-10T03:55:06;13.20;99.90
61841;DHT22;47773;53.174;6.614;2023-05-10T03:57:32;13.20;99.90
61841;DHT22;47773;53.174;6.614;2023-05-10T03:59:57;13.20;99.90
61841;DHT22;47773;53.174;6.614;2023-05-10T04:02:23;13.20;99.90
61841;DHT22;47773;53.174;6.614;2023-05-10T04:04:49;13.10;99.90
61841;DHT22;47773;53.174;6.614;2023-05-10T04:07:14;13.10;99.90
61841;DHT22;47773;53.174;6.614;2023-05-10T04:09:40;13.10;99.90
61841;DHT22;47773;53.174;6.614;2023-05-10T04:12:06;13.20;99.90
61841;DHT22;47773;53.174;6.614;2023-05-10T04:14:32;13.10;99.90
61841;DHT22;47773;53.174;6.614;2023-05-10T04:16:57;13.10;99.90
61841;DHT22;47773;53.174;6.614;2023-05-10T04:19:23;13.10;99.90
61841;DHT22;47773;53.174;6.614;2023-05-10T04:21:49;13.10;99.90
61841;DHT22;47773;53.174;6.614;2023-05-10T04:24:14;13.10;99.90
61841;DHT22;47773;53.174;6.614;2023-05-10T04:26:40;13.00;99.90
61841;DHT22;47773;53.174;6.614;2023-05-10T04:29:06;13.00;99.90
61841;DHT22;47773;53.174;6.614;2023-05-10T04:31:32;13.00;99.90
61841;DHT22;47773;53.174;6.614;2023-05-10T04:33:57;13.00;99.90
61841;DHT22;47773;53.174;6.614;2023-05-10T04:36:23;13.00;99.90
61841;DHT22;47773;53.174;6.614;2023-05-10T04:38:49;13.00;99.90
61841;DHT22;47773;53.174;6.614;2023-05-10T04:41:14;13.10;99.90
61841;DHT22;47773;53.174;6.614;2023-05-10T04:43:40;13.10;99.90
61841;DHT22;47773;53.174;6.614;2023-05-10T04:46:06;13.10;99.90
61841;DHT22;47773;53.174;6.614;2023-05-10T04:48:33;13.00;99.90
61841;DHT22;47773;53.174;6.614;2023-05-10T04:50:58;13.00;99.90
61841;DHT22;47773;53.174;6.614;2023-05-10T04:53:24;13.00;99.90
61841;DHT22;47773;53.174;6.614;2023-05-10T04:55:50;13.00;99.90
61841;DHT22;47773;53.174;6.614;2023-05-10T04:58:16;13.00;99.90
61841;DHT22;47773;53.174;6.614;2023-05-10T05:00:41;13.00;99.90
61841;DHT22;47773;53.174;6.614;2023-05-10T05:03:08;13.00;99.90
61841;DHT22;47773;53.174;6.614;2023-05-10T05:05:33;13.00;99.90
61841;DHT22;47773;53.174;6.614;2023-05-10T05:07:59;13.00;99.90
61841;DHT22;47773;53.174;6.614;2023-05-10T05:10:25;13.00;99.90
61841;DHT22;47773;53.174;6.614;2023-05-10T05:12:50;13.00;99.90
61841;DHT22;47773;53.174;6.614;2023-05-10T05:15:16;13.00;99.90
61841;DHT22;47773;53.174;6.614;2023-05-10T05:17:43;12.90;99.90
61841;DHT22;47773;53.174;6.614;2023-05-10T05:20:09;12.90;99.90
61841;DHT22;47773;53.174;6.614;2023-05-10T05:22:36;12.90;99.90
61841;DHT22;47773;53.174;6.614;2023-05-10T05:25:02;12.90;99.90
61841;DHT22;47773;53.174;6.614;2023-05-10T05:27:29;12.90;99.90
61841;DHT22;47773;53.174;6.614;2023-05-10T05:29:58;12.90;99.90
61841;DHT22;47773;53.174;6.614;2023-05-10T05:32:24;12.90;99.90
61841;DHT22;47773;53.174;6.614;2023-05-10T05:34:50;12.90;99.90
61841;DHT22;47773;53.174;6.614;2023-05-10T05:37:18;12.90;99.90
61841;DHT22;47773;53.174;6.614;2023-05-10T05:39:45;12.90;99.90
61841;DHT22;47773;53.174;6.614;2023-05-10T05:42:11;12.90;99.90
61841;DHT22;47773;53.174;6.614;2023-05-10T05:44:37;12.90;99.90
61841;DHT22;47773;53.174;6.614;2023-05-10T05:47:03;12.90;99.90
61841;DHT22;47773;53.174;6.614;2023-05-10T05:49:29;13.00;99.90
61841;DHT22;47773;53.174;6.614;2023-05-10T05:52:02;13.00;99.90
61841;DHT22;47773;53.174;6.614;2023-05-10T05:54:27;13.00;99.90
61841;DHT22;47773;53.174;6.614;2023-05-10T05:56:54;13.00;99.90
61841;DHT22;47773;53.174;6.614;2023-05-10T05:59:21;13.00;99.90
61841;DHT22;47773;53.174;6.614;2023-05-10T06:01:47;13.00;99.90
61841;DHT22;47773;53.174;6.614;2023-05-10T06:04:12;13.00;99.90
61841;DHT22;47773;53.174;6.614;2023-05-10T06:06:38;13.00;99.90
61841;DHT22;47773;53.174;6.614;2023-05-10T06:09:04;13.00;99.90
61841;DHT22;47773;53.174;6.614;2023-05-10T06:11:29;13.00;99.90
61841;DHT22;47773;53.174;6.614;2023-05-10T06:13:58;13.00;99.90
61841;DHT22;47773;53.174;6.614;2023-05-10T06:16:23;13.00;99.90
61841;DHT22;47773;53.174;6.614;2023-05-10T06:18:49;13.10;99.90
61841;DHT22;47773;53.174;6.614;2023-05-10T06:21:15;13.10;99.90
61841;DHT22;47773;53.174;6.614;2023-05-10T06:23:41;13.10;99.90
61841;DHT22;47773;53.174;6.614;2023-05-10T06:26:07;13.10;99.90
61841;DHT22;47773;53.174;6.614;2023-05-10T06:28:33;13.10;99.90
61841;DHT22;47773;53.174;6.614;2023-05-10T06:30:59;13.10;99.90
61841;DHT22;47773;53.174;6.614;2023-05-10T06:33:25;13.10;99.90
61841;DHT22;47773;53.174;6.614;2023-05-10T06:35:51;13.20;99.90
61841;DHT22;47773;53.174;6.614;2023-05-10T06:38:17;13.10;99.90
61841;DHT22;47773;53.174;6.614;2023-05-10T06:40:43;13.20;99.90
61841;DHT22;47773;53.174;6.614;2023-05-10T06:43:09;13.20;99.90
61841;DHT22;47773;53.174;6.614;2023-05-10T06:45:35;13.10;99.90
61841;DHT22;47773;53.174;6.614;2023-05-10T06:48:01;13.10;99.90
61841;DHT22;47773;53.174;6.614;2023-05-10T06:50:27;13.10;99.90
61841;DHT22;47773;53.174;6.614;2023-05-10T06:52:52;13.10;99.90
61841;DHT22;47773;53.174;6.614;2023-05-10T06:55:18;13.10;99.90
61841;DHT22;47773;53.174;6.614;2023-05-10T06:57:44;13.10;99.90
61841;DHT22;47773;53.174;6.614;2023-05-10T07:00:10;13.10;99.90
61841;DHT22;47773;53.174;6.614;2023-05-10T07:02:36;13.10;99.90
61841;DHT22;47773;53.174;6.614;2023-05-10T07:05:02;13.20;99.90
61841;DHT22;47773;53.174;6.614;2023-05-10T07:07:27;13.20;99.90
61841;DHT22;47773;53.174;6.614;2023-05-10T07:09:54;13.20;99.90
61841;DHT22;47773;53.174;6.614;2023-05-10T07:12:20;13.20;99.90
61841;DHT22;47773;53.174;6.614;2023-05-10T07:14:45;13.30;99.90
61841;DHT22;47773;53.174;6.614;2023-05-10T07:17:11;13.30;99.90
61841;DHT22;47773;53.174;6.614;2023-05-10T07:19:37;13.20;99.90
61841;DHT22;47773;53.174;6.614;2023-05-10T07:22:03;13.20;99.90
61841;DHT22;47773;53.174;6.614;2023-05-10T07:24:28;13.20;99.90
61841;DHT22;47773;53.174;6.614;2023-05-10T07:26:55;13.20;99.90
61841;DHT22;47773;53.174;6.614;2023-05-10T07:29:20;13.20;99.90
61841;DHT22;47773;53.174;6.614;2023-05-10T07:31:46;13.20;99.90
61841;DHT22;47773;53.174;6.614;2023-05-10T07:34:12;13.20;99.90
61841;DHT22;47773;53.174;6.614;2023-05-10T07:36:37;13.20;99.90
61841;DHT22;47773;53.174;6.614;2023-05-10T07:39:03;13.30;99.90
61841;DHT22;47773;53.174;6.614;2023-05-10T07:41:29;13.30;99.90
61841;DHT22;47773;53.174;6.614;2023-05-10T07:43:55;13.40;99.90
61841;DHT22;47773;53.174;6.614;2023-05-10T07:46:20;13.40;99.90
61841;DHT22;47773;53.174;6.614;2023-05-10T07:48:46;13.40;99.90
61841;DHT22;47773;53.174;6.614;2023-05-10T07:51:12;13.40;99.90
61841;DHT22;47773;53.174;6.614;2023-05-10T07:53:38;13.40;99.90
61841;DHT22;47773;53.174;6.614;2023-05-10T07:56:25;13.40;99.90
61841;DHT22;47773;53.174;6.614;2023-05-10T07:58:53;13.40;99.90
61841;DHT22;47773;53.174;6.614;2023-05-10T08:01:19;13.50;99.90
61841;DHT22;47773;53.174;6.614;2023-05-10T08:03:45;13.50;99.90
61841;DHT22;47773;53.174;6.614;2023-05-10T08:06:11;13.50;99.90
61841;DHT22;47773;53.174;6.614;2023-05-10T08:08:37;13.60;99.90
61841;DHT22;47773;53.174;6.614;2023-05-10T08:11:03;13.50;99.90
61841;DHT22;47773;53.174;6.614;2023-05-10T08:13:29;13.60;99.90
61841;DHT22;47773;53.174;6.614;2023-05-10T08:15:55;13.60;99.90
61841;DHT22;47773;53.174;6.614;2023-05-10T08:18:20;13.50;99.90
61841;DHT22;47773;53.174;6.614;2023-05-10T08:20:46;13.50;99.90
61841;DHT22;47773;53.174;6.614;2023-05-10T08:23:15;13.50;99.90
61841;DHT22;47773;53.174;6.614;2023-05-10T08:25:41;13.50;99.90
61841;DHT22;47773;53.174;6.614;2023-05-10T08:28:06;13.50;99.90
61841;DHT22;47773;53.174;6.614;2023-05-10T08:30:32;13.40;99.90
61841;DHT22;47773;53.174;6.614;2023-05-10T08:32:58;13.50;99.90
61841;DHT22;47773;53.174;6.614;2023-05-10T08:35:23;13.50;99.90
61841;DHT22;47773;53.174;6.614;2023-05-10T08:37:50;13.50;99.90
61841;DHT22;47773;53.174;6.614;2023-05-10T08:40:16;13.50;99.90
61841;DHT22;47773;53.174;6.614;2023-05-10T08:42:51;13.60;99.90
61841;DHT22;47773;53.174;6.614;2023-05-10T08:45:23;13.60;99.90
61841;DHT22;47773;53.174;6.614;2023-05-10T08:47:49;13.70;99.90
61841;DHT22;47773;53.174;6.614;2023-05-10T08:50:16;13.70;99.90
61841;DHT22;47773;53.174;6.614;2023-05-10T08:52:43;13.70;99.90
61841;DHT22;47773;53.174;6.614;2023-05-10T08:55:10;13.70;99.90
61841;DHT22;47773;53.174;6.614;2023-05-10T08:57:36;13.70;99.90
61841;DHT22;47773;53.174;6.614;2023-05-10T09:00:02;13.70;99.90
61841;DHT22;47773;53.174;6.614;2023-05-10T09:02:28;13.80;99.90
61841;DHT22;47773;53.174;6.614;2023-05-10T09:04:54;13.80;99.90
61841;DHT22;47773;53.174;6.614;2023-05-10T09:07:20;13.90;99.90
61841;DHT22;47773;53.174;6.614;2023-05-10T09:09:46;13.90;99.90
61841;DHT22;47773;53.174;6.614;2023-05-10T09:12:13;13.90;99.90
61841;DHT22;47773;53.174;6.614;2023-05-10T09:14:41;13.80;99.90
61841;DHT22;47773;53.174;6.614;2023-05-10T09:17:07;13.80;99.90
61841;DHT22;47773;53.174;6.614;2023-05-10T09:19:34;13.90;99.90
61841;DHT22;47773;53.174;6.614;2023-05-10T09:21:59;13.90;99.90
61841;DHT22;47773;53.174;6.614;2023-05-10T09:24:28;13.90;99.90
61841;DHT22;47773;53.174;6.614;2023-05-10T09:26:57;14.00;99.90
61841;DHT22;47773;53.174;6.614;2023-05-10T09:29:23;14.00;99.90
61841;DHT22;47773;53.174;6.614;2023-05-10T09:31:49;14.00;99.90
61841;DHT22;47773;53.174;6.614;2023-05-10T09:34:31;14.10;99.90
61841;DHT22;47773;53.174;6.614;2023-05-10T09:36:59;14.20;99.90
61841;DHT22;47773;53.174;6.614;2023-05-10T09:39:38;14.20;99.90
61841;DHT22;47773;53.174;6.614;2023-05-10T09:42:07;14.30;99.90
61841;DHT22;47773;53.174;6.614;2023-05-10T09:44:34;14.30;99.90
61841;DHT22;47773;53.174;6.614;2023-05-10T09:47:01;14.30;99.90
61841;DHT22;47773;53.174;6.614;2023-05-10T09:49:27;14.40;99.90
61841;DHT22;47773;53.174;6.614;2023-05-10T09:52:07;14.40;99.90
61841;DHT22;47773;53.174;6.614;2023-05-10T09:54:33;14.40;99.90
61841;DHT22;47773;53.174;6.614;2023-05-10T09:57:00;14.50;99.90
61841;DHT22;47773;53.174;6.614;2023-05-10T09:59:26;14.60;99.90
61841;DHT22;47773;53.174;6.614;2023-05-10T10:01:59;14.70;99.90
61841;DHT22;47773;53.174;6.614;2023-05-10T10:04:26;14.70;99.90
61841;DHT22;47773;53.174;6.614;2023-05-10T10:07:02;14.70;99.90
61841;DHT22;47773;53.174;6.614;2023-05-10T10:09:29;14.70;99.90
61841;DHT22;47773;53.174;6.614;2023-05-10T10:11:54;14.60;99.90
61841;DHT22;47773;53.174;6.614;2023-05-10T10:14:22;14.70;99.90
61841;DHT22;47773;53.174;6.614;2023-05-10T10:16:49;14.60;99.90
61841;DHT22;47773;53.174;6.614;2023-05-10T10:19:15;14.70;99.90
61841;DHT22;47773;53.174;6.614;2023-05-10T10:21:41;14.70;99.90
61841;DHT22;47773;53.174;6.614;2023-05-10T10:24:06;14.80;99.90
61841;DHT22;47773;53.174;6.614;2023-05-10T10:26:36;14.80;99.90
61841;DHT22;47773;53.174;6.614;2023-05-10T10:29:21;14.90;99.90
61841;DHT22;47773;53.174;6.614;2023-05-10T10:32:09;14.90;99.90
61841;DHT22;47773;53.174;6.614;2023-05-10T10:34:38;14.90;99.90
61841;DHT22;47773;53.174;6.614;2023-05-10T10:37:05;15.00;99.90
61841;DHT22;47773;53.174;6.614;2023-05-10T10:39:31;15.00;99.90
61841;DHT22;47773;53.174;6.614;2023-05-10T10:41:58;15.10;99.90
61841;DHT22;47773;53.174;6.614;2023-05-10T10:47:07;15.20;99.90
61841;DHT22;47773;53.174;6.614;2023-05-10T10:52:30;15.20;99.90
61841;DHT22;47773;53.174;6.614;2023-05-10T10:55:02;15.20;99.90
61841;DHT22;47773;53.174;6.614;2023-05-10T10:57:31;15.20;99.90
61841;DHT22;47773;53.174;6.614;2023-05-10T11:03:14;15.10;99.90
61841;DHT22;47773;53.174;6.614;2023-05-10T11:05:48;15.10;99.90
61841;DHT22;47773;53.174;6.614;2023-05-10T11:08:30;15.10;99.90
61841;DHT22;47773;53.174;6.614;2023-05-10T11:13:37;15.20;99.90
61841;DHT22;47773;53.174;6.614;2023-05-10T11:16:19;15.30;99.90
61841;DHT22;47773;53.174;6.614;2023-05-10T11:21:28;15.60;99.90
61841;DHT22;47773;53.174;6.614;2023-05-10T11:24:01;15.70;99.90
61841;DHT22;47773;53.174;6.614;2023-05-10T11:26:33;15.80;99.90
61841;DHT22;47773;53.174;6.614;2023-05-10T11:29:00;15.80;99.90
61841;DHT22;47773;53.174;6.614;2023-05-10T11:31:27;15.90;99.90
61841;DHT22;47773;53.174;6.614;2023-05-10T11:33:58;15.90;99.90
61841;DHT22;47773;53.174;6.614;2023-05-10T11:36:27;15.90;99.90
61841;DHT22;47773;53.174;6.614;2023-05-10T11:38:54;15.90;99.90
61841;DHT22;47773;53.174;6.614;2023-05-10T11:41:21;15.80;99.90
61841;DHT22;47773;53.174;6.614;2023-05-10T11:43:50;15.80;99.90
61841;DHT22;47773;53.174;6.614;2023-05-10T11:46:17;15.80;99.90
61841;DHT22;47773;53.174;6.614;2023-05-10T11:48:43;15.70;99.90
61841;DHT22;47773;53.174;6.614;2023-05-10T11:51:10;15.70;99.90
61841;DHT22;47773;53.174;6.614;2023-05-10T11:53:36;15.60;99.90
61841;DHT22;47773;53.174;6.614;2023-05-10T11:56:07;15.50;99.90
61841;DHT22;47773;53.174;6.614;2023-05-10T11:58:33;15.50;99.90
61841;DHT22;47773;53.174;6.614;2023-05-10T12:00:59;15.50;99.90
61841;DHT22;47773;53.174;6.614;2023-05-10T12:03:26;15.50;99.90
61841;DHT22;47773;53.174;6.614;2023-05-10T12:05:53;15.40;99.90
61841;DHT22;47773;53.174;6.614;2023-05-10T12:08:23;15.50;99.90
61841;DHT22;47773;53.174;6.614;2023-05-10T12:10:50;15.50;99.90
61841;DHT22;47773;53.174;6.614;2023-05-10T12:13:16;15.50;99.90
61841;DHT22;47773;53.174;6.614;2023-05-10T12:15:43;15.50;99.90
61841;DHT22;47773;53.174;6.614;2023-05-10T12:18:12;15.60;99.90
61841;DHT22;47773;53.174;6.614;2023-05-10T12:20:38;15.60;99.90
61841;DHT22;47773;53.174;6.614;2023-05-10T12:23:04;15.60;99.90
61841;DHT22;47773;53.174;6.614;2023-05-10T12:25:34;15.60;99.90
61841;DHT22;47773;53.174;6.614;2023-05-10T12:28:04;15.70;99.90
61841;DHT22;47773;53.174;6.614;2023-05-10T12:30:32;15.70;99.90
61841;DHT22;47773;53.174;6.614;2023-05-10T12:33:06;15.70;99.90
61841;DHT22;47773;53.174;6.614;2023-05-10T12:35:33;15.70;99.90
61841;DHT22;47773;53.174;6.614;2023-05-10T12:40:57;15.80;99.90
61841;DHT22;47773;53.174;6.614;2023-05-10T12:43:23;15.80;99.90
61841;DHT22;47773;53.174;6.614;2023-05-10T12:45:49;15.80;99.90
61841;DHT22;47773;53.174;6.614;2023-05-10T12:48:15;15.80;99.90
61841;DHT22;47773;53.174;6.614;2023-05-10T12:50:41;15.80;99.90
61841;DHT22;47773;53.174;6.614;2023-05-10T12:53:06;15.80;99.90
61841;DHT22;47773;53.174;6.614;2023-05-10T12:55:32;15.70;99.90
61841;DHT22;47773;53.174;6.614;2023-05-10T12:57:58;15.80;99.90
61841;DHT22;47773;53.174;6.614;2023-05-10T13:00:24;15.80;99.90
61841;DHT22;47773;53.174;6.614;2023-05-10T13:02:49;15.80;99.90
61841;DHT22;47773;53.174;6.614;2023-05-10T13:05:15;15.80;99.90
61841;DHT22;47773;53.174;6.614;2023-05-10T13:07:41;15.80;99.90
61841;DHT22;47773;53.174;6.614;2023-05-10T13:10:06;15.90;99.90
61841;DHT22;47773;53.174;6.614;2023-05-10T13:12:32;15.80;99.90
61841;DHT22;47773;53.174;6.614;2023-05-10T13:14:58;15.80;99.90
61841;DHT22;47773;53.174;6.614;2023-05-10T13:17:25;15.80;99.90
61841;DHT22;47773;53.174;6.614;2023-05-10T13:19:51;15.80;99.90
61841;DHT22;47773;53.174;6.614;2023-05-10T13:22:17;15.80;99.90
61841;DHT22;47773;53.174;6.614;2023-05-10T13:24:43;15.80;99.90
61841;DHT22;47773;53.174;6.614;2023-05-10T13:27:09;15.80;99.90
61841;DHT22;47773;53.174;6.614;2023-05-10T13:29:34;15.80;99.90
61841;DHT22;47773;53.174;6.614;2023-05-10T13:32:00;15.70;99.90
61841;DHT22;47773;53.174;6.614;2023-05-10T13:34:26;15.70;99.90
61841;DHT22;47773;53.174;6.614;2023-05-10T13:36:53;15.70;99.90
61841;DHT22;47773;53.174;6.614;2023-05-10T13:39:20;15.60;99.90
61841;DHT22;47773;53.174;6.614;2023-05-10T13:41:46;15.70;99.90
61841;DHT22;47773;53.174;6.614;2023-05-10T13:44:13;15.60;99.90
61841;DHT22;47773;53.174;6.614;2023-05-10T13:46:39;15.60;99.90
61841;DHT22;47773;53.174;6.614;2023-05-10T13:49:05;15.60;99.90
61841;DHT22;47773;53.174;6.614;2023-05-10T13:51:31;15.70;99.90
61841;DHT22;47773;53.174;6.614;2023-05-10T13:53:57;15.70;99.90
61841;DHT22;47773;53.174;6.614;2023-05-10T13:56:23;15.60;99.90
61841;DHT22;47773;53.174;6.614;2023-05-10T13:58:49;15.70;99.90
61841;DHT22;47773;53.174;6.614;2023-05-10T14:01:14;15.60;99.90
61841;DHT22;47773;53.174;6.614;2023-05-10T14:03:40;15.70;99.90
61841;DHT22;47773;53.174;6.614;2023-05-10T14:06:06;15.70;99.90
61841;DHT22;47773;53.174;6.614;2023-05-10T14:08:33;15.70;99.90
61841;DHT22;47773;53.174;6.614;2023-05-10T14:10:59;15.80;99.90
61841;DHT22;47773;53.174;6.614;2023-05-10T14:13:25;15.80;99.90
61841;DHT22;47773;53.174;6.614;2023-05-10T14:15:51;15.80;99.90
61841;DHT22;47773;53.174;6.614;2023-05-10T14:18:17;15.80;99.90
61841;DHT22;47773;53.174;6.614;2023-05-10T14:20:43;15.80;99.90
61841;DHT22;47773;53.174;6.614;2023-05-10T14:23:09;15.80;99.90
61841;DHT22;47773;53.174;6.614;2023-05-10T14:25:34;15.80;99.90
61841;DHT22;47773;53.174;6.614;2023-05-10T14:28:00;15.90;99.90
61841;DHT22;47773;53.174;6.614;2023-05-10T14:30:26;15.80;99.90
61841;DHT22;47773;53.174;6.614;2023-05-10T14:32:51;15.80;99.90
61841;DHT22;47773;53.174;6.614;2023-05-10T14:35:19;15.80;99.90
61841;DHT22;47773;53.174;6.614;2023-05-10T14:37:45;15.80;99.90
61841;DHT22;47773;53.174;6.614;2023-05-10T14:40:11;15.90;99.90
61841;DHT22;47773;53.174;6.614;2023-05-10T14:42:37;15.90;99.90
61841;DHT22;47773;53.174;6.614;2023-05-10T14:45:03;15.90;99.90
61841;DHT22;47773;53.174;6.614;2023-05-10T14:47:29;16.00;99.90
61841;DHT22;47773;53.174;6.614;2023-05-10T14:49:55;16.00;99.90
61841;DHT22;47773;53.174;6.614;2023-05-10T14:52:21;16.10;99.90
61841;DHT22;47773;53.174;6.614;2023-05-10T14:54:46;16.20;99.90
61841;DHT22;47773;53.174;6.614;2023-05-10T14:57:12;16.20;99.90
61841;DHT22;47773;53.174;6.614;2023-05-10T14:59:38;16.20;99.90
61841;DHT22;47773;53.174;6.614;2023-05-10T15:02:04;16.20;99.90
61841;DHT22;47773;53.174;6.614;2023-05-10T15:04:30;16.30;99.90
61841;DHT22;47773;53.174;6.614;2023-05-10T15:06:56;16.40;99.90
61841;DHT22;47773;53.174;6.614;2023-05-10T15:09:25;16.40;99.90
61841;DHT22;47773;53.174;6.614;2023-05-10T15:11:53;16.50;99.90
61841;DHT22;47773;53.174;6.614;2023-05-10T15:14:18;16.50;99.90
61841;DHT22;47773;53.174;6.614;2023-05-10T15:16:44;16.50;99.90
61841;DHT22;47773;53.174;6.614;2023-05-10T15:19:10;16.60;99.90
61841;DHT22;47773;53.174;6.614;2023-05-10T15:21:35;16.60;99.90
61841;DHT22;47773;53.174;6.614;2023-05-10T15:24:07;16.70;99.90
61841;DHT22;47773;53.174;6.614;2023-05-10T15:26:33;16.70;99.90
61841;DHT22;47773;53.174;6.614;2023-05-10T15:28:59;16.70;99.90
61841;DHT22;47773;53.174;6.614;2023-05-10T15:31:25;16.60;99.90
61841;DHT22;47773;53.174;6.614;2023-05-10T15:33:50;16.60;99.90
61841;DHT22;47773;53.174;6.614;2023-05-10T15:36:16;16.60;99.90
61841;DHT22;47773;53.174;6.614;2023-05-10T15:38:43;16.50;99.90
61841;DHT22;47773;53.174;6.614;2023-05-10T15:41:09;16.50;99.90
61841;DHT22;47773;53.174;6.614;2023-05-10T15:43:35;16.40;99.90
61841;DHT22;47773;53.174;6.614;2023-05-10T15:46:01;16.40;99.90
61841;DHT22;47773;53.174;6.614;2023-05-10T15:48:27;16.40;99.90
61841;DHT22;47773;53.174;6.614;2023-05-10T15:50:52;16.40;99.90
61841;DHT22;47773;53.174;6.614;2023-05-10T15:53:18;16.40;99.90
61841;DHT22;47773;53.174;6.614;2023-05-10T15:55:44;16.30;99.90
61841;DHT22;47773;53.174;6.614;2023-05-10T15:58:09;16.40;99.90
61841;DHT22;47773;53.174;6.614;2023-05-10T16:00:35;16.30;99.90
61841;DHT22;47773;53.174;6.614;2023-05-10T16:03:01;16.40;99.90